Terminal Aerodrome Forecast
Issued by NWS Jackson, KY

Home | Current Version | Previous Version | Text Only | Print | Product List | Glossary On
Versions: 1 2 3 4 5 6 7 8 9 10 11 12 13 14 15 16 17 18 19 20 21 22 23 24 25 26 27 28 29 30 31 32 33
000
FTUS43 KJKL 050527
TAFJKL
TAF
KJKL 050527Z 0506/0606 03006KT 2SM -FZRAPL BR BKN004 OVC022
     FM050800 36008KT 1/2SM SN SCT003 OVC008
     FM051500 05006KT 2SM -SN BR SCT005 OVC012
     FM052200 06007KT P6SM BKN020=

USA.gov is the U.S. government's official web portal to all federal, state and local government web resources and services.